Terminal Aerodrome Forecast
Issued by NWS

Home | Current Version | Previous Version | Text Only | Print | Product List | Glossary On
Versions: 1 2 3 4 5 6 7 8 9 10 11 12 13 14 15 16 17 18 19 20
000
FTUS43 KILX 092341
TAFDEC
TAF
KDEC 092341Z 1000/1024 03010KT P6SM SKC
     FM100500 VRB03KT P6SM SKC
     FM100900 VRB03KT 3SM BR SCT250
     FM101300 VRB03KT P6SM BKN250
     FM101700 35006KT P6SM BKN150=

USA.gov is the U.S. government's official web portal to all federal, state and local government web resources and services.